createdAt,value
2022-11-28T00:01:33.202Z,0.66
2022-11-28T00:04:00.259Z,0.73
2022-11-28T00:06:28.012Z,0.71
2022-11-28T00:08:55.366Z,0.70
2022-11-28T00:11:22.073Z,0.73
2022-11-28T00:13:48.723Z,0.68
2022-11-28T00:16:21.640Z,0.71
2022-11-28T00:18:50.087Z,0.74
2022-11-28T00:21:17.299Z,0.80
2022-11-28T00:23:45.396Z,0.92
2022-11-28T00:26:20.034Z,0.88
2022-11-28T00:28:47.111Z,0.91
2022-11-28T00:31:22.936Z,0.99
2022-11-28T00:33:50.672Z,1.04
2022-11-28T00:36:18.010Z,1.11
2022-11-28T00:38:44.741Z,1.13
2022-11-28T00:41:17.385Z,1.07
2022-11-28T00:43:45.542Z,1.15
2022-11-28T00:46:13.942Z,1.18
2022-11-28T00:48:41.131Z,1.19
2022-11-28T00:51:09.153Z,1.09
2022-11-28T00:53:36.602Z,1.13
2022-11-28T00:56:07.716Z,1.21
2022-11-28T00:58:35.122Z,1.34
2022-11-28T01:01:31.188Z,1.41
2022-11-28T01:04:00.362Z,1.46
2022-11-28T01:06:32.830Z,1.24
2022-11-28T01:09:02.442Z,1.08
2022-11-28T01:11:30.278Z,1.09
2022-11-28T01:13:58.950Z,1.09
2022-11-28T01:16:26.149Z,1.05
2022-11-28T01:18:53.750Z,1.10
2022-11-28T01:21:21.074Z,1.18
2022-11-28T01:23:47.923Z,1.16
2022-11-28T01:26:23.986Z,1.19
2022-11-28T01:28:51.455Z,1.23
2022-11-28T01:31:21.324Z,1.27
2022-11-28T01:33:48.339Z,1.14
2022-11-28T01:36:15.070Z,1.10
2022-11-28T01:38:42.054Z,0.99
2022-11-28T01:41:09.768Z,0.89
2022-11-28T01:43:37.348Z,0.85
2022-11-28T01:46:05.633Z,0.89
2022-11-28T01:48:41.072Z,0.91
2022-11-28T01:51:10.111Z,0.84
2022-11-28T01:53:42.307Z,0.78
2022-11-28T01:56:14.255Z,0.84
2022-11-28T01:58:44.773Z,0.86
2022-11-28T02:01:12.221Z,0.84
2022-11-28T02:03:44.994Z,0.83
2022-11-28T02:06:14.656Z,0.98
2022-11-28T02:08:41.615Z,1.05
2022-11-28T02:11:14.385Z,1.03
2022-11-28T02:13:58.851Z,0.90
2022-11-28T02:16:44.272Z,0.82
2022-11-28T02:19:26.940Z,0.79
2022-11-28T02:22:11.904Z,0.85
2022-11-28T02:24:54.840Z,0.81
2022-11-28T02:27:48.426Z,0.77
2022-11-28T02:30:24.124Z,0.83
2022-11-28T02:32:55.288Z,0.94
2022-11-28T02:35:35.884Z,1.03
2022-11-28T02:38:12.944Z,1.13
2022-11-28T02:40:57.974Z,1.13
2022-11-28T02:43:52.437Z,1.14
2022-11-28T02:46:30.885Z,1.19
2022-11-28T02:49:06.732Z,1.24
2022-11-28T02:51:48.826Z,1.29
2022-11-28T02:54:18.320Z,1.24
2022-11-28T02:56:52.895Z,1.28
2022-11-28T02:59:37.975Z,1.36
2022-11-28T03:02:30.715Z,1.42
2022-11-28T03:05:22.407Z,1.42
2022-11-28T03:08:05.911Z,1.53
2022-11-28T03:10:54.787Z,1.50
2022-11-28T03:13:57.504Z,1.53
2022-11-28T03:16:30.457Z,1.41
2022-11-28T03:19:00.040Z,1.46
2022-11-28T03:21:40.720Z,1.27
2022-11-28T03:24:17.777Z,1.37
2022-11-28T03:26:56.571Z,1.51
2022-11-28T03:29:34.170Z,1.58
2022-11-28T03:32:06.905Z,1.40
2022-11-28T03:34:39.908Z,1.33
2022-11-28T03:37:26.724Z,1.32
2022-11-28T03:40:02.476Z,1.49
2022-11-28T03:42:35.540Z,1.51
2022-11-28T03:45:55.297Z,1.56
2022-11-28T03:48:31.519Z,1.52
2022-11-28T03:51:16.926Z,1.54
2022-11-28T03:54:07.851Z,1.19
2022-11-28T03:56:59.938Z,1.08
2022-11-28T03:59:33.427Z,1.24
2022-11-28T04:02:18.545Z,1.07
2022-11-28T04:05:00.035Z,0.89
2022-11-28T04:07:45.053Z,0.91
2022-11-28T04:10:28.587Z,0.96
2022-11-28T04:13:13.738Z,1.07
2022-11-28T04:16:01.786Z,1.14
2022-11-28T04:18:47.534Z,1.13
2022-11-28T04:21:18.974Z,1.28
2022-11-28T04:23:48.670Z,1.34
2022-11-28T04:26:23.055Z,1.37
2022-11-28T04:28:52.576Z,1.40
2022-11-28T04:31:22.830Z,1.48
2022-11-28T04:33:54.807Z,1.46
2022-11-28T04:36:24.010Z,1.39
2022-11-28T04:38:56.501Z,1.35
2022-11-28T04:41:38.550Z,1.30
2022-11-28T04:44:12.783Z,1.16
2022-11-28T04:46:48.574Z,1.13
2022-11-28T04:49:15.299Z,1.13
2022-11-28T04:51:41.926Z,1.14
2022-11-28T04:54:37.366Z,1.22
2022-11-28T04:57:17.541Z,1.16
2022-11-28T04:59:45.321Z,1.29
2022-11-28T05:02:14.847Z,1.33
2022-11-28T05:04:44.158Z,1.29
2022-11-28T05:07:11.377Z,1.30
2022-11-28T05:09:38.457Z,1.33
2022-11-28T05:12:06.217Z,1.30
2022-11-28T05:14:32.872Z,1.20
2022-11-28T05:16:59.516Z,1.24
2022-11-28T05:19:26.132Z,1.29
2022-11-28T05:21:53.503Z,1.18
2022-11-28T05:24:22.287Z,1.25
2022-11-28T05:26:49.519Z,1.31
2022-11-28T05:29:16.294Z,1.34
2022-11-28T05:31:43.223Z,1.29
2022-11-28T05:34:10.059Z,1.08
2022-11-28T05:36:36.730Z,0.82
2022-11-28T05:39:03.861Z,0.85
2022-11-28T05:41:32.011Z,0.87
2022-11-28T05:44:00.235Z,0.70
2022-11-28T05:46:28.146Z,0.79
2022-11-28T05:48:55.046Z,0.56
2022-11-28T05:51:21.706Z,0.66
2022-11-28T05:53:48.507Z,0.83
2022-11-28T05:56:18.489Z,0.77
2022-11-28T05:58:45.461Z,0.91
2022-11-28T06:01:14.815Z,1.00
2022-11-28T06:03:42.237Z,0.99
2022-11-28T06:06:12.197Z,0.90
2022-11-28T06:08:38.897Z,0.82
2022-11-28T06:11:06.480Z,0.81
2022-11-28T06:13:33.109Z,0.73
2022-11-28T06:15:59.742Z,0.69
2022-11-28T06:18:26.517Z,0.81
2022-11-28T06:20:53.623Z,0.76
2022-11-28T06:23:20.334Z,0.85
2022-11-28T06:25:46.987Z,0.84
2022-11-28T06:28:13.622Z,0.69
2022-11-28T06:30:43.268Z,0.50
2022-11-28T06:33:09.957Z,0.46
2022-11-28T06:35:36.589Z,0.53
2022-11-28T06:38:03.255Z,0.57
2022-11-28T06:40:29.895Z,0.63
2022-11-28T06:42:56.531Z,0.72
2022-11-28T06:45:23.134Z,0.78
2022-11-28T06:47:49.722Z,0.89
2022-11-28T06:50:16.568Z,0.96
2022-11-28T06:52:43.233Z,1.02
2022-11-28T06:55:10.064Z,1.01
2022-11-28T06:57:38.067Z,1.08
2022-11-28T07:00:05.961Z,1.15
2022-11-28T07:02:32.676Z,0.93
2022-11-28T07:04:59.358Z,0.94
2022-11-28T07:07:26.131Z,0.98
2022-11-28T07:09:52.987Z,0.98
2022-11-28T07:12:19.707Z,1.06
2022-11-28T07:14:46.588Z,1.14
2022-11-28T07:17:13.205Z,1.24
2022-11-28T07:19:39.966Z,1.32
2022-11-28T07:22:06.785Z,1.41
2022-11-28T07:24:33.426Z,1.47
2022-11-28T07:27:00.151Z,1.54
2022-11-28T07:29:31.329Z,1.52
2022-11-28T07:31:58.092Z,1.53
2022-11-28T07:34:24.814Z,1.57
2022-11-28T07:36:51.406Z,1.69
2022-11-28T07:39:18.675Z,1.71
2022-11-28T07:41:45.589Z,1.71
2022-11-28T07:44:12.977Z,1.82
2022-11-28T07:46:39.847Z,1.81
2022-11-28T07:49:06.708Z,1.94
2022-11-28T07:51:34.169Z,2.03
2022-11-28T07:54:02.007Z,2.02
2022-11-28T07:56:57.053Z,1.95
2022-11-28T07:59:18.453Z,1.73
2022-11-28T08:01:45.309Z,1.68
2022-11-28T08:04:12.119Z,1.67
2022-11-28T08:06:41.649Z,1.75
2022-11-28T08:09:08.712Z,1.75
2022-11-28T08:11:35.875Z,1.87
2022-11-28T08:14:02.662Z,2.04
2022-11-28T08:16:30.284Z,2.09
2022-11-28T08:18:57.925Z,2.06
2022-11-28T08:21:27.321Z,2.17
2022-11-28T08:23:55.874Z,2.39
2022-11-28T08:26:29.026Z,1.73
2022-11-28T08:28:57.806Z,1.87
2022-11-28T08:31:33.300Z,1.82
2022-11-28T08:34:02.312Z,1.79
2022-11-28T08:36:29.691Z,2.06
2022-11-28T08:39:09.854Z,2.28
2022-11-28T08:41:43.984Z,2.34
2022-11-28T08:44:10.575Z,2.56
2022-11-28T08:46:37.168Z,2.53
2022-11-28T08:49:04.724Z,2.52
2022-11-28T08:51:32.049Z,2.40
2022-11-28T08:54:00.103Z,2.30
2022-11-28T08:56:27.459Z,2.15
2022-11-28T08:58:55.047Z,2.08
2022-11-28T09:01:25.130Z,2.40
2022-11-28T09:03:53.424Z,2.54
2022-11-28T09:06:21.182Z,2.52
2022-11-28T09:08:49.396Z,2.50
2022-11-28T09:11:18.377Z,2.54
2022-11-28T09:13:45.886Z,2.80
2022-11-28T09:16:13.449Z,2.75
2022-11-28T09:18:40.301Z,2.95
2022-11-28T09:21:12.113Z,2.87
2022-11-28T09:23:41.146Z,2.86
2022-11-28T09:26:10.143Z,3.09
2022-11-28T09:28:37.033Z,3.25
2022-11-28T09:31:06.033Z,3.37
2022-11-28T09:33:33.251Z,3.65
2022-11-28T09:36:04.888Z,3.79
2022-11-28T09:38:31.544Z,3.70
2022-11-28T09:40:58.272Z,3.58
2022-11-28T09:43:35.640Z,3.66
2022-11-28T09:46:10.596Z,3.73
2022-11-28T09:48:42.012Z,3.87
2022-11-28T09:51:33.389Z,3.70
2022-11-28T09:54:18.403Z,3.87
2022-11-28T09:56:48.456Z,4.02
2022-11-28T09:59:21.121Z,3.99
2022-11-28T10:02:09.744Z,3.97
2022-11-28T10:05:00.994Z,3.85
2022-11-28T10:07:55.274Z,3.77
2022-11-28T10:10:49.534Z,3.79
2022-11-28T10:13:27.443Z,3.96
2022-11-28T10:16:12.145Z,4.09
2022-11-28T10:19:01.858Z,4.00
2022-11-28T10:21:47.664Z,4.36
2022-11-28T10:24:23.033Z,4.42
2022-11-28T10:26:53.946Z,4.71
2022-11-28T10:29:29.615Z,4.64
2022-11-28T10:32:01.846Z,4.77
2022-11-28T10:34:38.619Z,4.50
2022-11-28T10:37:10.703Z,4.29
2022-11-28T10:39:42.419Z,4.31
2022-11-28T10:42:48.935Z,4.43
2022-11-28T10:45:27.704Z,4.42
2022-11-28T10:48:39.045Z,4.45
2022-11-28T10:51:19.655Z,4.61
2022-11-28T10:54:09.696Z,4.67
2022-11-28T10:56:57.759Z,4.73
2022-11-28T10:59:33.533Z,4.71
2022-11-28T11:02:04.028Z,4.89
2022-11-28T11:04:33.811Z,4.92
2022-11-28T11:07:29.255Z,4.83
2022-11-28T11:10:40.733Z,4.91
2022-11-28T11:13:25.415Z,4.98
2022-11-28T11:16:04.214Z,5.00
2022-11-28T11:18:36.960Z,5.15
2022-11-28T11:21:25.291Z,5.40
2022-11-28T11:24:20.578Z,5.62
2022-11-28T11:26:49.015Z,5.81
2022-11-28T11:29:29.223Z,5.55
2022-11-28T11:31:56.745Z,5.47
2022-11-28T11:34:24.499Z,5.37
2022-11-28T11:36:51.659Z,5.28
2022-11-28T11:39:25.685Z,5.35
2022-11-28T11:42:11.761Z,5.49
2022-11-28T11:44:38.463Z,5.56
2022-11-28T11:47:07.818Z,5.72
2022-11-28T11:49:35.756Z,5.74
2022-11-28T11:52:06.922Z,5.73
2022-11-28T11:54:34.104Z,5.99
2022-11-28T11:57:30.883Z,6.14
2022-11-28T12:00:02.470Z,6.16
2022-11-28T12:02:59.842Z,6.08
2022-11-28T12:05:41.804Z,6.19
2022-11-28T12:08:43.536Z,6.09
2022-11-28T12:11:34.675Z,6.20
2022-11-28T12:14:27.397Z,6.24
2022-11-28T12:17:40.872Z,6.26
2022-11-28T12:20:39.235Z,6.27
2022-11-28T12:23:20.715Z,6.50
2022-11-28T12:25:59.076Z,6.57
2022-11-28T12:28:31.728Z,6.77
2022-11-28T12:31:01.205Z,6.62
2022-11-28T12:33:44.276Z,6.50
2022-11-28T12:36:21.605Z,6.39
2022-11-28T12:39:16.221Z,6.42
2022-11-28T12:41:51.775Z,6.18
2022-11-28T12:44:43.196Z,6.24
2022-11-28T12:47:48.418Z,6.35
2022-11-28T12:50:37.672Z,6.49
2022-11-28T12:53:14.639Z,6.70
2022-11-28T12:56:02.565Z,6.74
2022-11-28T12:58:48.545Z,6.77
2022-11-28T13:01:27.201Z,6.91
2022-11-28T13:04:17.656Z,6.80
2022-11-28T13:07:03.020Z,6.70
2022-11-28T13:09:37.227Z,6.71
2022-11-28T13:12:29.312Z,6.73
2022-11-28T13:15:22.751Z,7.03
2022-11-28T13:18:12.637Z,6.97
2022-11-28T13:20:45.755Z,7.05
2022-11-28T13:23:25.429Z,6.84
2022-11-28T13:25:52.042Z,6.92
2022-11-28T13:28:42.288Z,6.82
2022-11-28T13:31:24.983Z,6.93
2022-11-28T13:33:54.233Z,6.75
2022-11-28T13:39:32.657Z,6.64
2022-11-28T13:45:26.701Z,6.46
2022-11-28T13:47:58.682Z,6.35
2022-11-28T13:50:27.999Z,6.24
2022-11-28T13:53:03.559Z,6.32
2022-11-28T13:55:36.265Z,6.22
2022-11-28T13:58:28.354Z,6.25
2022-11-28T14:01:20.499Z,6.20
2022-11-28T14:03:52.351Z,6.19
2022-11-28T14:06:42.106Z,6.10
2022-11-28T14:09:11.449Z,6.10
2022-11-28T14:11:56.337Z,6.03
2022-11-28T14:14:34.841Z,6.22
2022-11-28T14:17:16.331Z,6.29
2022-11-28T14:20:10.892Z,6.09
2022-11-28T14:22:43.620Z,6.10
2022-11-28T14:25:24.120Z,6.12
2022-11-28T14:27:58.812Z,6.06
2022-11-28T14:30:39.437Z,6.00
2022-11-28T14:33:40.790Z,5.93
2022-11-28T14:36:24.416Z,5.94
2022-11-28T14:39:10.640Z,5.97
2022-11-28T14:42:06.526Z,5.81
2022-11-28T14:44:56.955Z,5.88
2022-11-28T14:47:35.011Z,5.87
2022-11-28T14:50:04.359Z,5.76
2022-11-28T14:52:40.205Z,5.82
2022-11-28T14:55:10.316Z,5.87
2022-11-28T14:58:03.186Z,5.71
2022-11-28T15:00:47.472Z,5.63
2022-11-28T15:03:19.866Z,5.57
2022-11-28T15:05:47.841Z,5.56
2022-11-28T15:08:36.754Z,5.50
2022-11-28T15:11:21.455Z,5.36
2022-11-28T15:14:14.069Z,5.33
2022-11-28T15:16:49.815Z,5.32
2022-11-28T15:19:20.208Z,5.33
2022-11-28T15:21:50.067Z,5.32
2022-11-28T15:24:31.518Z,5.29
2022-11-28T15:27:19.525Z,5.36
2022-11-28T15:30:00.410Z,5.33
2022-11-28T15:32:29.808Z,5.37
2022-11-28T15:35:10.877Z,5.23
2022-11-28T15:37:39.123Z,5.24
2022-11-28T15:40:06.863Z,5.25
2022-11-28T15:42:35.552Z,5.26
2022-11-28T15:45:27.988Z,5.24
2022-11-28T15:47:55.647Z,5.23
2022-11-28T15:50:25.555Z,5.29
2022-11-28T15:53:16.552Z,5.32
2022-11-28T15:55:44.056Z,5.22
2022-11-28T15:58:30.510Z,5.10
2022-11-28T16:01:06.645Z,5.00
2022-11-28T16:03:48.343Z,4.98
2022-11-28T16:06:17.539Z,5.04
2022-11-28T16:09:04.065Z,4.94
2022-11-28T16:11:31.787Z,4.92
2022-11-28T16:14:01.500Z,4.83
2022-11-28T16:16:31.518Z,4.84
2022-11-28T16:19:05.057Z,4.85
2022-11-28T16:21:43.447Z,4.94
2022-11-28T16:24:26.497Z,4.69
2022-11-28T16:26:59.897Z,4.76
2022-11-28T16:29:34.643Z,4.74
2022-11-28T16:32:09.512Z,4.83
2022-11-28T16:34:47.679Z,4.67
2022-11-28T16:37:19.020Z,4.60
2022-11-28T16:39:45.872Z,4.56
2022-11-28T16:42:16.744Z,4.54
2022-11-28T16:44:43.850Z,4.60
2022-11-28T16:47:28.911Z,4.47
2022-11-28T16:50:16.072Z,4.43
2022-11-28T16:52:50.382Z,4.58
2022-11-28T16:55:28.984Z,4.62
2022-11-28T16:58:08.939Z,4.56
2022-11-28T17:00:37.077Z,4.42
2022-11-28T17:03:06.438Z,4.52
2022-11-28T17:05:35.702Z,4.63
2022-11-28T17:08:02.347Z,4.57
2022-11-28T17:10:29.048Z,4.72
2022-11-28T17:12:55.678Z,4.64
2022-11-28T17:15:23.617Z,4.66
2022-11-28T17:17:50.391Z,4.64
2022-11-28T17:20:17.892Z,4.65
2022-11-28T17:22:47.728Z,4.70
2022-11-28T17:25:20.476Z,4.73
2022-11-28T17:27:50.484Z,4.35
2022-11-28T17:30:19.173Z,4.53
2022-11-28T17:32:49.156Z,4.52
2022-11-28T17:35:24.299Z,4.50
2022-11-28T17:37:51.027Z,4.56
2022-11-28T17:40:36.883Z,4.54
2022-11-28T17:43:03.908Z,4.43
2022-11-28T17:45:34.008Z,4.49
2022-11-28T17:48:00.801Z,4.55
2022-11-28T17:50:27.479Z,4.56
2022-11-28T17:52:54.173Z,4.45
2022-11-28T17:55:20.830Z,4.40
2022-11-28T17:57:47.603Z,4.43
2022-11-28T18:00:15.233Z,4.37
2022-11-28T18:02:42.279Z,4.45
2022-11-28T18:05:09.544Z,4.43
2022-11-28T18:07:36.345Z,4.22
2022-11-28T18:10:03.843Z,4.30
2022-11-28T18:12:30.676Z,4.27
2022-11-28T18:14:59.531Z,4.06
2022-11-28T18:17:26.322Z,4.22
2022-11-28T18:19:57.304Z,4.32
2022-11-28T18:22:24.688Z,4.40
2022-11-28T18:24:51.391Z,4.45
2022-11-28T18:27:18.024Z,4.45
2022-11-28T18:29:44.914Z,4.15
2022-11-28T18:32:11.843Z,4.06
2022-11-28T18:34:38.562Z,3.98
2022-11-28T18:37:05.326Z,4.10
2022-11-28T18:39:33.151Z,4.15
2022-11-28T18:42:00.142Z,4.10
2022-11-28T18:44:26.842Z,4.08
2022-11-28T18:46:53.490Z,4.00
2022-11-28T18:49:20.375Z,3.97
2022-11-28T18:51:47.790Z,3.81
2022-11-28T18:54:20.612Z,3.73
2022-11-28T18:56:48.171Z,3.77
2022-11-28T18:59:14.987Z,3.83
2022-11-28T19:01:41.701Z,3.85
2022-11-28T19:04:12.013Z,3.85
2022-11-28T19:06:40.095Z,3.90
2022-11-28T19:09:09.571Z,4.02
2022-11-28T19:11:36.712Z,4.05
2022-11-28T19:14:03.587Z,4.04
2022-11-28T19:16:33.309Z,4.08
2022-11-28T19:19:01.189Z,3.96
2022-11-28T19:21:31.637Z,3.91
2022-11-28T19:23:59.323Z,3.86
2022-11-28T19:26:28.056Z,3.95
2022-11-28T19:28:55.846Z,3.91
2022-11-28T19:31:27.186Z,3.83
2022-11-28T19:34:00.506Z,3.86
2022-11-28T19:36:28.841Z,3.97
2022-11-28T19:38:55.510Z,3.96
2022-11-28T19:41:22.627Z,4.11
2022-11-28T19:43:50.160Z,4.12
2022-11-28T19:46:17.262Z,4.00
2022-11-28T19:48:44.058Z,4.12
2022-11-28T19:51:12.280Z,4.17
2022-11-28T19:53:41.446Z,4.22
2022-11-28T19:56:12.384Z,4.23
2022-11-28T19:58:39.085Z,4.17
2022-11-28T20:01:12.544Z,4.01
2022-11-28T20:03:41.056Z,3.84
2022-11-28T20:06:12.832Z,3.81
2022-11-28T20:08:40.135Z,3.86
2022-11-28T20:11:21.678Z,3.94
2022-11-28T20:13:49.513Z,3.93
2022-11-28T20:16:17.760Z,4.07
2022-11-28T20:18:45.097Z,4.10
2022-11-28T20:21:17.569Z,4.09
2022-11-28T20:23:50.405Z,4.11
2022-11-28T20:26:18.554Z,4.14
2022-11-28T20:28:46.144Z,4.27
2022-11-28T20:31:28.388Z,4.24
2022-11-28T20:33:55.105Z,4.31
2022-11-28T20:36:24.255Z,4.30
2022-11-28T20:38:52.226Z,4.29
2022-11-28T20:41:20.904Z,4.29
2022-11-28T20:43:48.353Z,4.28
2022-11-28T20:46:32.521Z,4.28
2022-11-28T20:49:01.949Z,4.26
2022-11-28T20:51:31.261Z,4.23
2022-11-28T20:53:59.157Z,4.21
2022-11-28T20:56:29.694Z,4.20
2022-11-28T20:59:00.644Z,4.24
2022-11-28T21:01:33.255Z,4.23
2022-11-28T21:04:01.495Z,4.18
2022-11-28T21:06:28.295Z,4.13
2022-11-28T21:08:56.578Z,4.14
2022-11-28T21:11:55.246Z,4.20
2022-11-28T21:14:14.147Z,4.17
2022-11-28T21:16:41.740Z,4.18
2022-11-28T21:19:09.399Z,4.13
2022-11-28T21:21:39.482Z,3.98
2022-11-28T21:24:09.564Z,3.88
2022-11-28T21:26:40.886Z,3.97
2022-11-28T21:29:09.511Z,4.02
2022-11-28T21:31:39.684Z,4.12
2022-11-28T21:34:06.335Z,4.11
2022-11-28T21:36:33.026Z,4.11
2022-11-28T21:39:00.880Z,4.04
2022-11-28T21:41:30.199Z,4.12
2022-11-28T21:43:57.650Z,4.15
2022-11-28T21:46:24.674Z,4.25
2022-11-28T21:48:51.343Z,4.17
2022-11-28T21:51:21.090Z,4.20
2022-11-28T21:53:48.086Z,4.18
2022-11-28T21:56:15.074Z,4.32
2022-11-28T21:58:41.770Z,4.32
2022-11-28T22:01:11.669Z,4.29
2022-11-28T22:03:39.189Z,4.36
2022-11-28T22:06:13.459Z,3.94
2022-11-28T22:08:40.084Z,3.99
2022-11-28T22:11:11.130Z,3.97
2022-11-28T22:13:38.867Z,4.12
2022-11-28T22:16:11.661Z,4.26
2022-11-28T22:18:38.625Z,4.25
2022-11-28T22:21:28.605Z,4.31
2022-11-28T22:23:53.939Z,4.36
2022-11-28T22:26:20.643Z,4.20
2022-11-28T22:28:53.240Z,4.19
2022-11-28T22:31:20.501Z,4.29
2022-11-28T22:33:49.678Z,4.30
2022-11-28T22:36:19.275Z,4.40
2022-11-28T22:38:47.655Z,4.36
2022-11-28T22:41:26.390Z,4.32
2022-11-28T22:43:57.071Z,4.25
2022-11-28T22:46:23.802Z,4.34
2022-11-28T22:48:51.864Z,4.30
2022-11-28T22:51:21.451Z,4.35
2022-11-28T22:53:48.268Z,4.27
2022-11-28T22:56:15.820Z,4.28
2022-11-28T22:58:45.258Z,4.29
2022-11-28T23:01:15.733Z,4.37
2022-11-28T23:03:42.383Z,4.30
2022-11-28T23:06:13.149Z,4.23
2022-11-28T23:08:40.587Z,4.29
2022-11-28T23:11:13.973Z,4.42
2022-11-28T23:13:40.943Z,4.18
2022-11-28T23:16:19.692Z,4.31
2022-11-28T23:18:49.213Z,4.35
2022-11-28T23:21:17.492Z,4.45
2022-11-28T23:23:45.840Z,4.47
2022-11-28T23:26:18.666Z,4.54
2022-11-28T23:28:45.615Z,4.52
2022-11-28T23:31:14.479Z,4.50
2022-11-28T23:33:41.735Z,4.51
2022-11-28T23:36:12.779Z,4.54
2022-11-28T23:38:39.437Z,4.59
2022-11-28T23:41:06.170Z,4.64
2022-11-28T23:43:32.826Z,4.63
2022-11-28T23:45:59.525Z,4.62
2022-11-28T23:48:26.247Z,4.46
2022-11-28T23:50:53.023Z,4.57
2022-11-28T23:53:19.673Z,4.50
2022-11-28T23:55:46.372Z,4.56
2022-11-28T23:58:15.199Z,4.47
